Time;durP1;ratioP1;P1;durP2;ratioP2;P2;SDS_P1;SDS_P2;PMS_P1;PMS_P2;Temp;Humidity;BMP_temperature;BMP_pressure;BME280_temperature;BME280_humidity;BME280_pressure;Samples;Min_cycle;Max_cycle;Signal;HPM_P1;HPM_P2
2022/11/20 00:00:38;;;;;;;;;;;9.20;99.90;;;;;;6098388;23;20328;-76
2022/11/20 00:03:03;;;;;;;;;;;9.20;99.90;;;;;;6098194;23;19908;-76
2022/11/20 00:05:29;;;;;;;;;;;9.20;99.90;;;;;;6098160;23;20247;-77
2022/11/20 00:07:54;;;;;;;;;;;9.30;99.90;;;;;;6098675;23;19961;-74
2022/11/20 00:10:20;;;;;;;;;;;9.20;99.90;;;;;;6098303;23;19979;-77
2022/11/20 00:12:45;;;;;;;;;;;9.10;99.90;;;;;;6098058;23;19933;-76
2022/11/20 00:15:11;;;;;;;;;;;9.10;99.90;;;;;;6098245;23;19905;-77
2022/11/20 00:17:36;;;;;;;;;;;9.10;99.90;;;;;;6097946;23;19905;-77
2022/11/20 00:20:02;;;;;;;;;;;9.20;99.90;;;;;;6098015;23;19901;-76
2022/11/20 00:22:28;;;;;;;;;;;9.20;99.90;;;;;;6098453;23;19983;-76
2022/11/20 00:24:53;;;;;;;;;;;9.20;99.90;;;;;;6120816;23;19908;-76
2022/11/20 00:27:19;;;;;;;;;;;9.20;99.90;;;;;;6098131;23;20317;-76
2022/11/20 00:29:44;;;;;;;;;;;9.20;99.90;;;;;;6097823;23;19902;-77
2022/11/20 00:32:10;;;;;;;;;;;9.00;99.90;;;;;;6097636;23;20293;-77
2022/11/20 00:34:35;;;;;;;;;;;9.00;99.90;;;;;;6097891;23;19901;-76
2022/11/20 00:37:01;;;;;;;;;;;9.00;99.90;;;;;;6097811;23;20324;-77
2022/11/20 00:39:26;;;;;;;;;;;9.00;99.90;;;;;;6097898;23;19901;-78
2022/11/20 00:41:52;;;;;;;;;;;9.00;99.90;;;;;;6098321;23;19988;-75
2022/11/20 00:44:18;;;;;;;;;;;9.20;99.90;;;;;;6097770;23;19906;-75
2022/11/20 00:46:43;;;;;;;;;;;9.30;99.90;;;;;;6097775;23;19908;-76
2022/11/20 00:49:09;;;;;;;;;;;9.20;99.90;;;;;;6097739;23;20295;-76
2022/11/20 00:51:34;;;;;;;;;;;9.10;99.90;;;;;;6097726;23;19917;-77
2022/11/20 00:54:01;;;;;;;;;;;9.30;99.90;;;;;;6097571;23;19932;-75
2022/11/20 00:56:27;;;;;;;;;;;9.30;99.90;;;;;;6097593;23;19905;-75
2022/11/20 00:58:53;;;;;;;;;;;9.40;99.90;;;;;;6098326;23;19956;-76
2022/11/20 01:01:20;;;;;;;;;;;9.50;99.90;;;;;;6096063;23;20029;-77
2022/11/20 01:03:47;;;;;;;;;;;9.40;99.90;;;;;;6097645;23;19984;-76
2022/11/20 01:06:23;;;;;;;;;;;9.40;99.90;;;;;;6097874;23;19908;-77
2022/11/20 01:08:49;;;;;;;;;;;9.30;99.90;;;;;;6098577;23;19901;-76
2022/11/20 01:11:17;;;;;;;;;;;9.20;99.90;;;;;;6097689;23;19905;-77
2022/11/20 01:13:43;;;;;;;;;;;9.20;99.90;;;;;;6097671;23;19932;-76
2022/11/20 01:16:15;;;;;;;;;;;9.20;99.90;;;;;;6097795;23;19964;-75
2022/11/20 01:18:43;;;;;;;;;;;9.10;99.90;;;;;;6097627;23;19912;-76
2022/11/20 01:21:10;;;;;;;;;;;9.20;99.90;;;;;;6097629;23;19901;-77
2022/11/20 01:23:36;;;;;;;;;;;9.20;99.90;;;;;;6097469;23;20320;-77
2022/11/20 01:26:03;;;;;;;;;;;9.20;99.90;;;;;;6098012;23;19933;-76
2022/11/20 01:28:29;;;;;;;;;;;9.10;99.90;;;;;;6097513;23;19907;-75
2022/11/20 01:30:55;;;;;;;;;;;9.10;99.90;;;;;;6097430;23;19908;-76
2022/11/20 01:33:20;;;;;;;;;;;9.10;99.90;;;;;;6097204;23;19909;-76
2022/11/20 01:35:46;;;;;;;;;;;9.10;99.90;;;;;;6097463;23;19902;-76
2022/11/20 01:38:11;;;;;;;;;;;9.10;99.90;;;;;;6097690;23;20319;-76
2022/11/20 01:40:37;;;;;;;;;;;9.10;99.90;;;;;;6097513;23;19901;-76
2022/11/20 01:43:22;;;;;;;;;;;9.10;99.90;;;;;;6097521;23;19902;-76
2022/11/20 01:45:59;;;;;;;;;;;9.10;99.90;;;;;;6097751;23;19984;-76
2022/11/20 01:48:26;;;;;;;;;;;9.00;99.90;;;;;;6097485;23;19952;-76
2022/11/20 01:50:53;;;;;;;;;;;9.00;99.90;;;;;;6097539;23;20243;-76
2022/11/20 01:53:21;;;;;;;;;;;9.00;99.90;;;;;;6097501;23;19901;-75
2022/11/20 01:55:52;;;;;;;;;;;9.00;99.90;;;;;;6097415;23;19978;-77
2022/11/20 01:58:20;;;;;;;;;;;8.90;99.90;;;;;;6097599;23;20327;-76
2022/11/20 02:00:45;;;;;;;;;;;8.90;99.90;;;;;;6097588;23;19909;-75
2022/11/20 02:03:13;;;;;;;;;;;8.80;99.90;;;;;;6097442;23;19905;-76
2022/11/20 02:06:02;;;;;;;;;;;8.80;99.90;;;;;;6096274;23;20244;-75
2022/11/20 02:08:28;;;;;;;;;;;8.80;99.90;;;;;;6100128;23;19984;-77
2022/11/20 02:10:54;;;;;;;;;;;8.80;99.90;;;;;;6099254;23;20236;-76
2022/11/20 02:16:04;;;;;;;;;;;8.80;99.90;;;;;;6098816;23;20036;-76
2022/11/20 02:18:29;;;;;;;;;;;8.80;99.90;;;;;;6097585;23;19908;-76
2022/11/20 02:21:14;;;;;;;;;;;8.80;99.90;;;;;;6099182;23;19979;-76
2022/11/20 02:23:52;;;;;;;;;;;8.80;99.90;;;;;;6099177;23;19901;-76
2022/11/20 02:26:18;;;;;;;;;;;8.80;99.90;;;;;;6099312;23;19940;-76
2022/11/20 02:28:44;;;;;;;;;;;8.80;99.90;;;;;;6098997;23;19901;-76
2022/11/20 02:31:09;;;;;;;;;;;8.80;99.90;;;;;;6098872;23;19902;-74
2022/11/20 02:33:35;;;;;;;;;;;8.70;99.90;;;;;;6099338;23;20316;-77
2022/11/20 02:36:01;;;;;;;;;;;8.70;99.90;;;;;;6099325;23;19996;-76
2022/11/20 02:38:26;;;;;;;;;;;8.60;99.90;;;;;;6098975;23;19909;-75
2022/11/20 02:40:52;;;;;;;;;;;8.70;99.90;;;;;;6097401;23;19908;-75
2022/11/20 02:43:17;;;;;;;;;;;8.70;99.90;;;;;;6098940;23;19905;-76
2022/11/20 02:45:43;;;;;;;;;;;8.70;99.90;;;;;;6099393;23;19901;-77
2022/11/20 02:48:08;;;;;;;;;;;8.70;99.90;;;;;;6097316;23;19949;-75
2022/11/20 02:50:36;;;;;;;;;;;8.70;99.90;;;;;;6098906;23;20321;-75
2022/11/20 02:53:02;;;;;;;;;;;8.80;99.90;;;;;;6098836;23;19905;-77
2022/11/20 02:55:27;;;;;;;;;;;8.80;99.90;;;;;;6098764;23;19907;-76
2022/11/20 02:57:53;;;;;;;;;;;8.80;1.00;;;;;;6098656;23;19965;-76
2022/11/20 03:00:18;;;;;;;;;;;8.80;1.00;;;;;;6098800;23;19901;-76
2022/11/20 03:02:44;;;;;;;;;;;8.80;1.00;;;;;;6099215;23;19901;-76
2022/11/20 03:05:10;;;;;;;;;;;8.80;1.00;;;;;;6099093;23;19909;-77
2022/11/20 03:07:38;;;;;;;;;;;8.80;1.00;;;;;;6099153;23;20328;-76
2022/11/20 03:10:04;;;;;;;;;;;8.80;1.00;;;;;;6098850;23;19902;-78
2022/11/20 03:12:30;;;;;;;;;;;8.80;1.00;;;;;;6097084;23;20356;-76
2022/11/20 03:14:55;;;;;;;;;;;8.90;1.00;;;;;;6099177;23;19952;-77
2022/11/20 03:17:21;;;;;;;;;;;8.90;1.00;;;;;;6098841;23;19915;-76
2022/11/20 03:19:46;;;;;;;;;;;8.90;11.90;;;;;;6097050;23;19964;-74
2022/11/20 03:22:12;;;;;;;;;;;9.00;67.50;;;;;;6098573;23;20312;-76
2022/11/20 03:24:37;;;;;;;;;;;9.00;98.90;;;;;;6098575;23;19908;-76
2022/11/20 03:27:03;;;;;;;;;;;9.10;82.20;;;;;;6098556;23;19901;-76
2022/11/20 03:29:28;;;;;;;;;;;9.10;99.90;;;;;;6098670;23;19931;-77
2022/11/20 03:31:54;;;;;;;;;;;9.20;94.20;;;;;;6096646;23;19980;-75
2022/11/20 03:34:20;;;;;;;;;;;9.20;99.90;;;;;;6098497;23;19901;-77
2022/11/20 03:36:45;;;;;;;;;;;9.30;99.90;;;;;;6098330;23;19912;-77
2022/11/20 03:39:11;;;;;;;;;;;9.30;99.90;;;;;;6098361;23;19905;-76
2022/11/20 03:41:40;;;;;;;;;;;9.30;99.90;;;;;;6096815;23;20236;-75
2022/11/20 03:44:07;;;;;;;;;;;9.40;99.90;;;;;;6098604;23;19981;-76
2022/11/20 03:46:33;;;;;;;;;;;9.50;99.90;;;;;;6098476;23;20244;-76
2022/11/20 03:48:59;;;;;;;;;;;9.50;99.90;;;;;;6098315;23;19924;-76
2022/11/20 03:51:26;;;;;;;;;;;9.50;99.90;;;;;;6098841;23;19908;-76
2022/11/20 03:53:52;;;;;;;;;;;9.60;99.90;;;;;;6098450;23;19905;-76
2022/11/20 03:56:19;;;;;;;;;;;9.60;99.90;;;;;;6098116;23;20325;-76
2022/11/20 03:58:44;;;;;;;;;;;9.60;99.90;;;;;;6098142;23;19928;-75
2022/11/20 04:01:12;;;;;;;;;;;9.60;99.90;;;;;;6098131;23;19901;-77
2022/11/20 04:03:38;;;;;;;;;;;9.60;99.90;;;;;;6098142;23;20287;-75
2022/11/20 04:06:05;;;;;;;;;;;9.60;99.90;;;;;;6098147;23;19937;-75
2022/11/20 04:08:31;;;;;;;;;;;9.60;99.90;;;;;;6099017;23;19908;-76
2022/11/20 04:10:56;;;;;;;;;;;9.60;99.90;;;;;;6098049;23;19901;-77
2022/11/20 04:13:22;;;;;;;;;;;9.60;99.90;;;;;;6120908;23;19909;-76
2022/11/20 04:15:47;;;;;;;;;;;9.50;99.90;;;;;;6098541;23;19909;-75
2022/11/20 04:18:13;;;;;;;;;;;9.50;99.90;;;;;;6098194;23;19901;-76
2022/11/20 04:20:38;;;;;;;;;;;9.50;99.90;;;;;;6098008;23;20368;-75
2022/11/20 04:23:04;;;;;;;;;;;9.50;99.90;;;;;;6098152;23;19901;-75
2022/11/20 04:25:29;;;;;;;;;;;9.50;1.00;;;;;;6096352;23;19901;-76
2022/11/20 04:27:55;;;;;;;;;;;9.50;1.00;;;;;;6120645;23;19956;-77
2022/11/20 04:30:21;;;;;;;;;;;9.50;1.00;;;;;;6097769;23;19912;-75
2022/11/20 04:32:46;;;;;;;;;;;9.60;1.00;;;;;;6097554;23;19945;-75
2022/11/20 04:35:12;;;;;;;;;;;9.70;1.00;;;;;;6097919;23;20320;-75
2022/11/20 04:37:37;;;;;;;;;;;9.60;1.00;;;;;;6097721;23;19987;-75
2022/11/20 04:40:03;;;;;;;;;;;9.70;1.00;;;;;;6097833;23;19924;-74
2022/11/20 04:42:29;;;;;;;;;;;9.80;1.00;;;;;;6097850;23;19907;-75
2022/11/20 04:44:55;;;;;;;;;;;9.80;1.00;;;;;;6097789;23;19901;-77
2022/11/20 04:47:21;;;;;;;;;;;9.80;1.00;;;;;;6097737;23;19909;-76
2022/11/20 04:49:46;;;;;;;;;;;9.90;1.00;;;;;;6097990;23;19901;-75
2022/11/20 04:52:12;;;;;;;;;;;9.90;1.00;;;;;;6096164;23;20251;-76
2022/11/20 04:54:37;;;;;;;;;;;10.00;1.00;;;;;;6096176;23;19909;-76
2022/11/20 04:57:03;;;;;;;;;;;10.00;1.00;;;;;;6097606;23;19911;-76
2022/11/20 04:59:28;;;;;;;;;;;10.00;1.00;;;;;;6098123;23;19901;-76
2022/11/20 05:01:54;;;;;;;;;;;10.00;1.00;;;;;;6097733;23;20286;-74
2022/11/20 05:04:20;;;;;;;;;;;10.10;1.00;;;;;;6097917;23;19905;-75
2022/11/20 05:06:45;;;;;;;;;;;10.00;1.00;;;;;;6096097;23;19932;-76
2022/11/20 05:09:11;;;;;;;;;;;10.10;1.00;;;;;;6098256;23;19919;-77
2022/11/20 05:11:37;;;;;;;;;;;10.00;1.00;;;;;;6097623;23;19905;-76
2022/11/20 05:14:02;;;;;;;;;;;10.00;1.00;;;;;;6097632;23;19908;-76
2022/11/20 05:16:28;;;;;;;;;;;10.00;1.00;;;;;;6097625;23;19909;-75
2022/11/20 05:18:54;;;;;;;;;;;10.10;1.00;;;;;;6097721;23;19952;-76
2022/11/20 05:21:20;;;;;;;;;;;10.10;1.00;;;;;;6097642;23;19932;-75
2022/11/20 05:23:46;;;;;;;;;;;10.00;1.00;;;;;;6097658;23;19909;-74
2022/11/20 05:26:13;;;;;;;;;;;10.00;1.00;;;;;;6097827;23;19912;-75
2022/11/20 05:28:39;;;;;;;;;;;10.00;1.00;;;;;;6097503;23;19901;-75
2022/11/20 05:31:11;;;;;;;;;;;10.00;1.00;;;;;;6095825;23;19917;-75
2022/11/20 05:33:37;;;;;;;;;;;10.00;1.00;;;;;;6097917;23;19901;-77
2022/11/20 05:36:03;;;;;;;;;;;10.00;1.00;;;;;;6097565;23;19908;-74
2022/11/20 05:38:28;;;;;;;;;;;10.00;1.00;;;;;;6097836;23;19901;-76
2022/11/20 05:40:54;;;;;;;;;;;10.00;14.00;;;;;;6099018;23;19901;-75
2022/11/20 05:43:19;;;;;;;;;;;10.00;25.00;;;;;;6100132;23;20236;-75
2022/11/20 05:45:52;;;;;;;;;;;10.00;44.00;;;;;;6099540;23;19901;-76
2022/11/20 05:48:18;;;;;;;;;;;10.00;63.00;;;;;;6099319;23;19908;-75
2022/11/20 05:50:43;;;;;;;;;;;10.00;60.80;;;;;;6099389;23;19901;-74
2022/11/20 05:53:09;;;;;;;;;;;10.10;90.90;;;;;;6099458;23;19948;-76
2022/11/20 05:55:34;;;;;;;;;;;10.10;99.90;;;;;;6099935;23;20246;-74
2022/11/20 05:58:00;;;;;;;;;;;10.10;99.90;;;;;;6099344;23;19909;-74
2022/11/20 06:00:25;;;;;;;;;;;10.20;99.90;;;;;;6099401;23;19902;-76
2022/11/20 06:02:51;;;;;;;;;;;10.30;99.90;;;;;;6099534;23;20350;-76
2022/11/20 06:05:16;;;;;;;;;;;10.30;99.90;;;;;;6099320;23;19902;-75
2022/11/20 06:07:42;;;;;;;;;;;10.40;99.90;;;;;;6099862;23;19908;-77
2022/11/20 06:10:08;;;;;;;;;;;10.30;99.90;;;;;;6099860;23;19908;-76
2022/11/20 06:12:34;;;;;;;;;;;10.30;99.90;;;;;;6097698;23;19912;-75
2022/11/20 06:14:59;;;;;;;;;;;10.30;99.90;;;;;;6099369;23;19901;-75
2022/11/20 06:17:25;;;;;;;;;;;10.40;99.90;;;;;;6099211;23;19945;-76
2022/11/20 06:19:50;;;;;;;;;;;10.40;99.90;;;;;;6099187;23;20404;-75
2022/11/20 06:22:16;;;;;;;;;;;10.40;99.90;;;;;;6099524;23;19908;-75
2022/11/20 06:24:42;;;;;;;;;;;10.40;99.90;;;;;;6099144;23;19943;-76
2022/11/20 06:27:07;;;;;;;;;;;10.40;99.90;;;;;;6099108;23;19952;-74
2022/11/20 06:29:33;;;;;;;;;;;10.50;99.90;;;;;;6099088;23;20296;-74
2022/11/20 06:31:58;;;;;;;;;;;10.20;99.90;;;;;;6099238;23;19913;-76
2022/11/20 06:34:24;;;;;;;;;;;10.10;99.90;;;;;;6099360;23;19908;-76
2022/11/20 06:36:49;;;;;;;;;;;10.20;99.90;;;;;;6098914;23;20339;-74
2022/11/20 06:39:15;;;;;;;;;;;10.20;99.90;;;;;;6098977;23;20348;-75
2022/11/20 06:41:40;;;;;;;;;;;10.10;99.90;;;;;;6098970;23;20276;-75
2022/11/20 06:44:06;;;;;;;;;;;10.10;99.90;;;;;;6098964;23;19901;-75
2022/11/20 06:46:32;;;;;;;;;;;10.20;99.90;;;;;;6098872;23;19956;-76
2022/11/20 06:48:58;;;;;;;;;;;10.20;99.90;;;;;;6098929;23;20236;-76
2022/11/20 06:51:23;;;;;;;;;;;10.20;99.90;;;;;;6096928;23;20240;-76
2022/11/20 06:53:49;;;;;;;;;;;10.30;99.90;;;;;;6099369;23;19901;-74
2022/11/20 06:56:15;;;;;;;;;;;10.30;99.90;;;;;;6097189;23;19912;-75
2022/11/20 06:58:40;;;;;;;;;;;10.20;99.90;;;;;;6098832;23;19949;-76
2022/11/20 07:01:12;;;;;;;;;;;10.20;99.90;;;;;;6098881;23;19979;-75
2022/11/20 07:03:38;;;;;;;;;;;10.20;99.90;;;;;;6098751;23;20269;-75
2022/11/20 07:06:04;;;;;;;;;;;10.10;99.90;;;;;;6098742;23;19901;-76
2022/11/20 07:08:30;;;;;;;;;;;10.00;99.90;;;;;;6099402;23;19901;-76
2022/11/20 07:10:59;;;;;;;;;;;10.00;99.90;;;;;;6098723;23;19908;-76
2022/11/20 07:13:25;;;;;;;;;;;9.80;99.90;;;;;;6098617;23;19902;-74
2022/11/20 07:15:50;;;;;;;;;;;9.80;99.90;;;;;;6098374;23;19901;-75
2022/11/20 07:18:16;;;;;;;;;;;9.70;99.90;;;;;;6098786;23;19960;-76
2022/11/20 07:20:42;;;;;;;;;;;9.70;99.90;;;;;;6098864;23;19905;-74
2022/11/20 07:23:07;;;;;;;;;;;9.60;99.90;;;;;;6098651;23;19901;-75
2022/11/20 07:25:33;;;;;;;;;;;9.60;99.90;;;;;;6096909;23;20043;-75
2022/11/20 07:27:59;;;;;;;;;;;9.60;99.90;;;;;;6096909;23;19909;-76
2022/11/20 07:30:25;;;;;;;;;;;9.60;99.90;;;;;;6098458;23;20375;-75
2022/11/20 07:32:51;;;;;;;;;;;9.60;99.90;;;;;;6098275;23;19913;-75
2022/11/20 07:35:16;;;;;;;;;;;9.60;99.90;;;;;;6098457;23;19999;-76
2022/11/20 07:37:42;;;;;;;;;;;9.60;99.90;;;;;;6098316;23;19909;-74
2022/11/20 07:40:08;;;;;;;;;;;9.60;99.90;;;;;;6098432;23;19908;-75
2022/11/20 07:42:33;;;;;;;;;;;9.70;99.90;;;;;;6098429;23;20225;-76
2022/11/20 07:44:59;;;;;;;;;;;9.70;99.90;;;;;;6098330;23;19907;-76
2022/11/20 07:47:24;;;;;;;;;;;9.70;99.90;;;;;;6121203;23;19901;-75
2022/11/20 07:49:50;;;;;;;;;;;9.80;99.90;;;;;;6098571;23;19924;-74
2022/11/20 07:52:16;;;;;;;;;;;9.80;99.90;;;;;;6098229;23;20244;-75
2022/11/20 07:54:41;;;;;;;;;;;9.90;99.90;;;;;;6098211;23;19905;-75
2022/11/20 07:57:07;;;;;;;;;;;9.80;99.90;;;;;;6098197;23;20404;-75
2022/11/20 07:59:32;;;;;;;;;;;10.00;99.90;;;;;;6098184;23;19901;-75
2022/11/20 08:01:58;;;;;;;;;;;10.00;99.90;;;;;;6096588;23;19984;-75
2022/11/20 08:04:24;;;;;;;;;;;10.00;99.90;;;;;;6098169;23;19901;-75
2022/11/20 08:06:49;;;;;;;;;;;10.00;99.90;;;;;;6098420;23;19901;-76
2022/11/20 08:09:15;;;;;;;;;;;10.20;99.90;;;;;;6098675;23;20217;-76
2022/11/20 08:14:24;;;;;;;;;;;10.30;59.70;;;;;;6097949;23;19909;-76
2022/11/20 08:16:50;;;;;;;;;;;10.40;29.10;;;;;;6098095;23;19905;-74
2022/11/20 08:19:17;;;;;;;;;;;10.70;4.20;;;;;;6098068;23;19905;-75
2022/11/20 08:21:43;;;;;;;;;;;11.10;1.00;;;;;;6098263;23;19907;-76
2022/11/20 08:24:09;;;;;;;;;;;11.50;1.00;;;;;;6097962;23;19928;-76
2022/11/20 08:26:38;;;;;;;;;;;11.70;99.90;;;;;;6097946;23;20328;-76
2022/11/20 08:29:04;;;;;;;;;;;12.00;99.90;;;;;;6097846;23;19901;-75
2022/11/20 08:31:30;;;;;;;;;;;12.50;99.90;;;;;;6097654;23;19916;-76
2022/11/20 08:33:55;;;;;;;;;;;12.80;1.00;;;;;;6098148;23;19933;-76
2022/11/20 08:36:22;;;;;;;;;;;12.90;1.00;;;;;;6097766;23;19915;-77
2022/11/20 08:38:48;;;;;;;;;;;13.10;1.00;;;;;;6097875;23;19901;-76
2022/11/20 08:41:31;;;;;;;;;;;12.90;1.00;;;;;;6097782;23;19901;-76
2022/11/20 08:43:58;;;;;;;;;;;13.30;1.00;;;;;;6098060;23;20358;-76
2022/11/20 08:46:25;;;;;;;;;;;13.40;99.90;;;;;;6097792;23;19905;-75
2022/11/20 08:48:50;;;;;;;;;;;13.30;99.90;;;;;;6097759;23;19924;-76
2022/11/20 08:51:16;;;;;;;;;;;13.20;99.90;;;;;;6098324;23;20316;-77
2022/11/20 08:53:42;;;;;;;;;;;13.10;99.90;;;;;;6097922;23;19905;-76
2022/11/20 08:56:09;;;;;;;;;;;13.40;99.90;;;;;;6097680;23;19901;-75
2022/11/20 08:58:35;;;;;;;;;;;13.70;99.90;;;;;;6097726;23;20320;-75
2022/11/20 09:01:01;;;;;;;;;;;14.00;99.90;;;;;;6098046;23;19956;-76
2022/11/20 09:03:27;;;;;;;;;;;14.40;99.90;;;;;;6097717;23;19908;-75
2022/11/20 09:06:00;;;;;;;;;;;14.70;99.90;;;;;;6097895;23;19910;-76
2022/11/20 09:08:26;;;;;;;;;;;14.60;99.90;;;;;;6097770;23;19902;-77
2022/11/20 09:10:52;;;;;;;;;;;15.20;99.90;;;;;;6098570;23;20082;-77
2022/11/20 09:13:17;;;;;;;;;;;15.80;99.90;;;;;;6097640;23;19972;-76
2022/11/20 09:15:43;;;;;;;;;;;15.70;99.90;;;;;;6097638;23;19928;-76
2022/11/20 09:18:08;;;;;;;;;;;15.50;99.90;;;;;;6097587;23;19905;-75
2022/11/20 09:20:35;;;;;;;;;;;15.60;99.90;;;;;;6097751;23;20316;-75
2022/11/20 09:23:00;;;;;;;;;;;15.50;99.90;;;;;;6097622;23;20332;-77
2022/11/20 09:25:26;;;;;;;;;;;15.80;99.90;;;;;;6097871;23;19909;-76
2022/11/20 09:27:55;;;;;;;;;;;16.70;99.90;;;;;;6097578;23;20293;-76
2022/11/20 09:30:21;;;;;;;;;;;16.30;91.50;;;;;;6097514;23;19980;-76
2022/11/20 09:32:46;;;;;;;;;;;16.30;99.90;;;;;;6097404;23;19948;-77
2022/11/20 09:35:13;;;;;;;;;;;15.80;94.70;;;;;;6097554;23;19952;-76
2022/11/20 09:37:39;;;;;;;;;;;16.20;99.90;;;;;;6097682;23;19905;-76
2022/11/20 09:40:05;;;;;;;;;;;16.10;71.10;;;;;;6097742;23;19902;-77
2022/11/20 09:42:34;;;;;;;;;;;16.10;76.90;;;;;;6095994;23;19908;-76
2022/11/20 09:45:18;;;;;;;;;;;17.30;99.90;;;;;;6097552;23;20392;-77
2022/11/20 09:47:47;;;;;;;;;;;17.10;69.80;;;;;;6097571;23;19901;-76
2022/11/20 09:50:32;;;;;;;;;;;16.20;99.90;;;;;;6097471;23;19983;-76
2022/11/20 09:53:16;;;;;;;;;;;16.30;95.20;;;;;;6097660;23;20336;-76
2022/11/20 09:55:42;;;;;;;;;;;17.10;84.90;;;;;;6097528;23;19906;-75
2022/11/20 09:58:14;;;;;;;;;;;17.70;96.60;;;;;;6097377;23;19912;-76
2022/11/20 10:00:40;;;;;;;;;;;17.30;40.20;;;;;;6097486;23;19902;-76
2022/11/20 10:03:18;;;;;;;;;;;17.40;45.70;;;;;;6097239;23;19952;-77
2022/11/20 10:05:43;;;;;;;;;;;17.50;64.00;;;;;;6097165;23;19901;-76
2022/11/20 10:08:16;;;;;;;;;;;17.90;26.50;;;;;;6097067;23;20217;-78
2022/11/20 10:10:42;;;;;;;;;;;18.00;24.70;;;;;;6097711;23;19905;-77
2022/11/20 10:13:10;;;;;;;;;;;17.70;22.60;;;;;;6096793;23;19908;-76
2022/11/20 10:15:35;;;;;;;;;;;17.40;20.10;;;;;;6096937;23;19933;-78
2022/11/20 10:18:20;;;;;;;;;;;17.10;20.40;;;;;;6097288;23;19957;-79
2022/11/20 10:21:04;;;;;;;;;;;17.30;34.70;;;;;;6096929;23;20351;-78
2022/11/20 10:23:39;;;;;;;;;;;17.10;22.00;;;;;;6097639;23;19925;-76
2022/11/20 10:26:21;;;;;;;;;;;16.80;28.00;;;;;;6097763;23;19991;-76
2022/11/20 10:28:50;;;;;;;;;;;16.70;28.20;;;;;;6099069;23;19912;-77
2022/11/20 10:31:31;;;;;;;;;;;17.30;27.20;;;;;;6098857;23;20380;-77
2022/11/20 10:33:58;;;;;;;;;;;17.10;27.70;;;;;;6099540;23;19901;-77
2022/11/20 10:36:26;;;;;;;;;;;17.40;17.10;;;;;;6099102;23;20343;-77
2022/11/20 10:39:14;;;;;;;;;;;16.90;23.20;;;;;;6098983;23;19908;-77
2022/11/20 10:41:40;;;;;;;;;;;17.30;30.80;;;;;;6099579;23;20217;-77
2022/11/20 10:44:15;;;;;;;;;;;17.60;13.80;;;;;;6098837;23;19928;-77
2022/11/20 10:46:44;;;;;;;;;;;16.80;20.00;;;;;;6097088;23;19901;-77
2022/11/20 10:49:17;;;;;;;;;;;16.60;33.60;;;;;;6098887;23;19907;-77
2022/11/20 10:51:51;;;;;;;;;;;17.70;21.60;;;;;;6098829;23;19908;-77
2022/11/20 10:54:17;;;;;;;;;;;17.70;17.60;;;;;;6099112;23;19956;-78
2022/11/20 10:56:46;;;;;;;;;;;18.40;11.90;;;;;;6098734;23;19909;-77
2022/11/20 10:59:19;;;;;;;;;;;19.20;4.50;;;;;;6098855;23;19928;-77
2022/11/20 11:01:45;;;;;;;;;;;19.20;1.00;;;;;;6099334;23;19924;-76
2022/11/20 11:04:28;;;;;;;;;;;18.10;3.10;;;;;;6098689;23;20316;-77
2022/11/20 11:06:57;;;;;;;;;;;18.10;13.10;;;;;;6098993;23;19960;-77
2022/11/20 11:09:27;;;;;;;;;;;20.60;1.00;;;;;;6099325;23;19985;-77
2022/11/20 11:11:53;;;;;;;;;;;22.00;1.00;;;;;;6098992;23;19975;-78
2022/11/20 11:14:19;;;;;;;;;;;23.10;1.00;;;;;;6098888;23;19908;-78
2022/11/20 11:16:57;;;;;;;;;;;22.50;1.00;;;;;;6096976;23;19906;-78
2022/11/20 11:19:23;;;;;;;;;;;22.50;1.00;;;;;;6099285;23;20364;-77
2022/11/20 11:21:56;;;;;;;;;;;22.80;1.00;;;;;;6098911;23;19932;-75
2022/11/20 11:24:22;;;;;;;;;;;23.50;1.00;;;;;;6098603;23;19913;-77
2022/11/20 11:27:07;;;;;;;;;;;23.30;1.00;;;;;;6098530;23;20235;-76
2022/11/20 11:29:33;;;;;;;;;;;24.60;1.00;;;;;;6098459;23;19905;-76
2022/11/20 11:32:06;;;;;;;;;;;25.80;1.00;;;;;;6098425;23;19988;-76
2022/11/20 11:34:32;;;;;;;;;;;25.20;1.00;;;;;;6098589;23;20328;-75
2022/11/20 11:36:58;;;;;;;;;;;25.70;1.00;;;;;;6098555;23;19912;-75
2022/11/20 11:39:25;;;;;;;;;;;26.20;1.00;;;;;;6098287;23;19960;-74
2022/11/20 11:41:51;;;;;;;;;;;26.70;1.00;;;;;;6098385;23;19901;-76
2022/11/20 11:47:02;;;;;;;;;;;25.80;1.00;;;;;;6098019;23;19908;-77
2022/11/20 11:49:27;;;;;;;;;;;24.80;1.00;;;;;;6096718;23;19909;-75
2022/11/20 11:51:59;;;;;;;;;;;25.00;1.00;;;;;;6098289;23;19901;-76
2022/11/20 11:54:40;;;;;;;;;;;24.20;1.00;;;;;;6098206;23;19901;-76
2022/11/20 11:57:11;;;;;;;;;;;22.60;1.00;;;;;;6098223;23;19956;-78
2022/11/20 11:59:55;;;;;;;;;;;21.70;1.00;;;;;;6098308;23;19907;-78
2022/11/20 12:02:41;;;;;;;;;;;21.80;1.00;;;;;;6098237;23;19972;-76
2022/11/20 12:05:13;;;;;;;;;;;22.50;1.00;;;;;;6068035;23;19928;-78
2022/11/20 12:07:43;;;;;;;;;;;23.70;1.00;;;;;;6098210;23;19936;-79
2022/11/20 12:10:32;;;;;;;;;;;24.10;1.00;;;;;;6099005;23;19901;-78
2022/11/20 12:13:30;;;;;;;;;;;22.60;1.00;;;;;;6089868;23;19907;-78
2022/11/20 12:15:55;;;;;;;;;;;23.60;1.00;;;;;;6048970;23;20301;-76
2022/11/20 12:18:22;;;;;;;;;;;25.10;1.00;;;;;;6097578;23;19906;-76
2022/11/20 12:20:59;;;;;;;;;;;24.60;1.00;;;;;;6098009;23;20287;-78
2022/11/20 12:23:30;;;;;;;;;;;23.60;1.00;;;;;;6098067;23;19980;-78
2022/11/20 12:25:58;;;;;;;;;;;22.70;1.00;;;;;;6098035;23;19902;-79
2022/11/20 12:28:44;;;;;;;;;;;23.30;1.00;;;;;;6097844;23;19905;-78
2022/11/20 12:31:20;;;;;;;;;;;23.30;1.00;;;;;;6097922;23;19903;-78
2022/11/20 12:34:02;;;;;;;;;;;24.20;1.00;;;;;;6098016;23;19907;-79
2022/11/20 12:36:32;;;;;;;;;;;24.30;1.00;;;;;;6097953;23;19905;-78
2022/11/20 12:39:08;;;;;;;;;;;23.80;1.00;;;;;;6098010;23;19901;-79
2022/11/20 12:47:32;;;;;;;;;;;23.90;1.00;;;;;;6097529;23;19927;-79
2022/11/20 12:50:30;;;;;;;;;;;23.40;1.00;;;;;;6096001;23;19907;-78
2022/11/20 12:52:57;;;;;;;;;;;23.00;1.00;;;;;;6064910;23;19901;-77
2022/11/20 12:55:36;;;;;;;;;;;20.80;1.00;;;;;;6097883;23;19955;-77
2022/11/20 12:58:20;;;;;;;;;;;20.70;1.00;;;;;;6094706;23;20232;-77
2022/11/20 13:01:04;;;;;;;;;;;22.10;1.00;;;;;;6097677;23;20316;-75
2022/11/20 13:03:32;;;;;;;;;;;22.70;1.00;;;;;;6097727;23;20328;-78
2022/11/20 13:06:04;;;;;;;;;;;21.70;1.00;;;;;;6097929;23;20412;-78
2022/11/20 13:08:33;;;;;;;;;;;21.20;1.00;;;;;;6097870;23;19954;-78
2022/11/20 13:11:14;;;;;;;;;;;21.30;1.00;;;;;;6098253;23;20241;-78
2022/11/20 13:13:58;;;;;;;;;;;20.60;1.00;;;;;;6097632;23;19928;-77
2022/11/20 13:16:29;;;;;;;;;;;20.70;1.00;;;;;;6097511;23;19905;-78
2022/11/20 13:18:55;;;;;;;;;;;23.50;1.00;;;;;;6097687;23;19980;-77
2022/11/20 13:21:22;;;;;;;;;;;23.30;1.00;;;;;;6097868;23;19956;-77
2022/11/20 13:23:48;;;;;;;;;;;24.20;1.00;;;;;;6097602;23;20217;-77
2022/11/20 13:26:21;;;;;;;;;;;23.80;1.00;;;;;;6097524;23;19901;-77
2022/11/20 13:29:03;;;;;;;;;;;23.80;1.00;;;;;;6095948;23;19925;-78
2022/11/20 13:31:33;;;;;;;;;;;24.60;1.00;;;;;;6097574;23;20328;-79
2022/11/20 13:33:59;;;;;;;;;;;24.30;1.00;;;;;;6097938;23;19902;-77
2022/11/20 13:36:27;;;;;;;;;;;23.60;1.00;;;;;;6097689;23;19909;-78
2022/11/20 13:38:53;;;;;;;;;;;25.00;1.00;;;;;;6097550;23;20346;-77
2022/11/20 13:41:28;;;;;;;;;;;25.20;1.00;;;;;;6097608;23;19905;-77
2022/11/20 13:43:57;;;;;;;;;;;25.40;1.00;;;;;;6097671;23;19908;-77
2022/11/20 13:46:24;;;;;;;;;;;26.10;1.00;;;;;;6097495;23;19956;-78
2022/11/20 13:48:51;;;;;;;;;;;25.60;1.00;;;;;;6097496;23;19975;-77
2022/11/20 13:51:25;;;;;;;;;;;25.60;1.00;;;;;;6097558;23;19952;-74
2022/11/20 13:54:12;;;;;;;;;;;25.50;1.00;;;;;;6095959;23;19940;-77
2022/11/20 13:56:37;;;;;;;;;;;24.60;1.00;;;;;;6067646;23;19905;-78
2022/11/20 13:59:24;;;;;;;;;;;24.80;1.00;;;;;;6097531;23;20343;-78
2022/11/20 14:01:49;;;;;;;;;;;24.90;1.00;;;;;;6098489;23;19901;-77
2022/11/20 14:04:18;;;;;;;;;;;23.70;1.00;;;;;;6099256;23;19908;-77
2022/11/20 14:06:45;;;;;;;;;;;23.60;1.00;;;;;;6099637;23;20396;-77
2022/11/20 14:09:12;;;;;;;;;;;23.20;1.00;;;;;;6099252;23;19901;-77
2022/11/20 14:11:45;;;;;;;;;;;23.30;1.00;;;;;;6099797;23;19936;-77
2022/11/20 14:14:16;;;;;;;;;;;22.30;1.00;;;;;;6099514;23;20351;-77
2022/11/20 14:16:43;;;;;;;;;;;21.40;1.00;;;;;;6099245;23;19905;-79
2022/11/20 14:19:24;;;;;;;;;;;20.60;1.00;;;;;;6121983;23;19901;-78
2022/11/20 14:21:54;;;;;;;;;;;20.30;1.00;;;;;;6099259;23;19908;-77
2022/11/20 14:24:21;;;;;;;;;;;20.20;1.00;;;;;;6099374;23;20244;-77
2022/11/20 14:26:47;;;;;;;;;;;20.50;1.00;;;;;;6099322;23;20342;-77
2022/11/20 14:29:14;;;;;;;;;;;20.30;1.00;;;;;;6097405;23;20240;-77
2022/11/20 14:31:40;;;;;;;;;;;20.60;1.00;;;;;;6098789;23;19913;-77
2022/11/20 14:34:14;;;;;;;;;;;20.00;1.00;;;;;;6099048;23;20236;-77
2022/11/20 14:36:40;;;;;;;;;;;18.90;1.00;;;;;;6099233;23;19913;-77
2022/11/20 14:39:09;;;;;;;;;;;18.10;1.00;;;;;;6098921;23;19901;-78
2022/11/20 14:41:34;;;;;;;;;;;17.20;1.00;;;;;;6098908;23;19912;-78
2022/11/20 14:44:01;;;;;;;;;;;16.50;1.00;;;;;;6098906;23;19901;-77
2022/11/20 14:46:27;;;;;;;;;;;16.70;1.00;;;;;;6099294;23;20035;-76